createdAt,value
2019-05-18T00:02:14.071Z,13.43
2019-05-18T00:05:10.526Z,13.83
2019-05-18T00:08:07.677Z,14.13
2019-05-18T00:11:04.553Z,14.93
2019-05-18T00:14:01.495Z,14.13
2019-05-18T00:16:45.321Z,16.90
2019-05-18T00:19:28.573Z,16.17
2019-05-18T00:22:24.730Z,17.13
2019-05-18T00:25:21.191Z,16.97
2019-05-18T00:28:17.655Z,16.33
2019-05-18T00:31:14.510Z,21.67
2019-05-18T00:34:11.429Z,18.43
2019-05-18T00:37:09.759Z,18.90
2019-05-18T00:40:07.275Z,17.47
2019-05-18T00:43:03.810Z,19.13
2019-05-18T00:46:00.638Z,17.10
2019-05-18T00:48:58.142Z,20.53
2019-05-18T00:51:59.529Z,21.30
2019-05-18T00:54:51.223Z,20.90
2019-05-18T00:58:01.840Z,24.80
2019-05-18T01:00:31.787Z,24.27
2019-05-18T01:03:28.633Z,24.13
2019-05-18T01:06:12.166Z,24.70
2019-05-18T01:09:08.574Z,25.27
2019-05-18T01:12:05.122Z,28.17
2019-05-18T01:14:48.655Z,30.93
2019-05-18T01:17:56.840Z,24.20
2019-05-18T01:20:56.243Z,25.90
2019-05-18T01:24:06.568Z,22.07
2019-05-18T01:27:03.177Z,24.97
2019-05-18T01:30:13.241Z,23.07
2019-05-18T01:33:23.543Z,21.37
2019-05-18T01:36:22.283Z,22.93
2019-05-18T01:38:52.921Z,22.47
2019-05-18T01:42:04.582Z,22.27
2019-05-18T01:45:14.375Z,22.33
2019-05-18T01:48:12.222Z,28.60
2019-05-18T01:50:41.099Z,25.17
2019-05-18T01:53:12.959Z,24.07
2019-05-18T01:55:52.169Z,27.50
2019-05-18T01:59:02.558Z,23.70
2019-05-18T02:01:51.705Z,26.33
2019-05-18T02:04:48.875Z,27.77
2019-05-18T02:07:35.695Z,28.70
2019-05-18T02:10:42.564Z,29.33
2019-05-18T02:13:26.114Z,30.77
2019-05-18T02:16:35.900Z,25.83
2019-05-18T02:19:19.762Z,32.97
2019-05-18T02:22:30.076Z,27.33
2019-05-18T02:25:40.054Z,25.37
2019-05-18T02:28:37.101Z,24.43
2019-05-18T02:31:34.603Z,26.70
2019-05-18T02:34:31.559Z,28.00
2019-05-18T02:37:44.539Z,25.60
2019-05-18T02:40:42.273Z,24.93
2019-05-18T02:43:51.900Z,23.90
2019-05-18T02:46:22.761Z,24.83
2019-05-18T02:49:33.706Z,23.70
2019-05-18T02:52:16.696Z,22.27
2019-05-18T02:55:13.942Z,20.77
2019-05-18T02:57:57.638Z,24.10
2019-05-18T03:01:21.593Z,25.83
2019-05-18T03:04:20.703Z,18.73
2019-05-18T03:07:17.745Z,19.97
2019-05-18T03:10:01.575Z,22.13
2019-05-18T03:12:58.636Z,18.20
2019-05-18T03:15:55.547Z,19.47
2019-05-18T03:19:07.403Z,18.37
2019-05-18T03:21:36.695Z,19.60
2019-05-18T03:24:46.971Z,13.90
2019-05-18T03:27:44.088Z,17.47
2019-05-18T03:30:28.546Z,13.83
2019-05-18T03:33:15.409Z,15.17
2019-05-18T03:36:10.873Z,14.47
2019-05-18T03:39:08.694Z,16.10
2019-05-18T03:41:53.390Z,15.33
2019-05-18T03:44:50.622Z,12.83
2019-05-18T03:47:49.132Z,13.43
2019-05-18T03:50:46.283Z,11.57
2019-05-18T03:53:44.216Z,13.60
2019-05-18T03:56:28.626Z,12.37
2019-05-18T03:59:12.346Z,12.83
2019-05-18T04:01:56.080Z,11.70
2019-05-18T04:04:53.674Z,11.97
2019-05-18T04:07:50.719Z,11.90
2019-05-18T04:10:47.741Z,15.37
2019-05-18T04:13:58.516Z,11.77
2019-05-18T04:16:55.395Z,13.87
2019-05-18T04:19:52.923Z,15.17
2019-05-18T04:22:36.244Z,12.07
2019-05-18T04:25:33.084Z,11.67
2019-05-18T04:28:30.864Z,11.73
2019-05-18T04:31:31.986Z,10.40
2019-05-18T04:34:11.780Z,9.57
2019-05-18T04:37:24.308Z,14.27
2019-05-18T04:40:21.666Z,9.80
2019-05-18T04:43:05.597Z,9.93
2019-05-18T04:46:02.944Z,9.90
2019-05-18T04:48:47.292Z,10.23
2019-05-18T04:51:56.410Z,11.20
2019-05-18T04:54:54.276Z,9.27
2019-05-18T04:57:53.167Z,9.13
2019-05-18T05:00:31.921Z,9.93
2019-05-18T05:03:33.623Z,8.93
2019-05-18T05:06:44.375Z,10.90
2019-05-18T05:09:28.671Z,8.70
2019-05-18T05:12:25.310Z,10.77
2019-05-18T05:15:09.189Z,9.20
2019-05-18T05:17:53.172Z,8.33
2019-05-18T05:21:04.119Z,10.97
2019-05-18T05:24:01.167Z,9.33
2019-05-18T05:26:44.890Z,9.10
2019-05-18T05:29:29.555Z,11.00
2019-05-18T05:32:39.878Z,12.63
2019-05-18T05:35:37.630Z,10.27
2019-05-18T05:38:35.515Z,11.17
2019-05-18T05:41:05.987Z,8.90
2019-05-18T05:44:15.299Z,9.53
2019-05-18T05:47:13.558Z,10.33
2019-05-18T05:50:10.401Z,9.80
2019-05-18T05:53:20.523Z,8.77
2019-05-18T05:56:03.844Z,8.77
2019-05-18T05:59:00.610Z,13.43
2019-05-18T06:01:58.190Z,8.40
2019-05-18T06:04:56.472Z,8.17
2019-05-18T06:07:40.107Z,8.70
2019-05-18T06:10:37.002Z,9.40
2019-05-18T06:13:34.086Z,10.90
2019-05-18T06:16:30.847Z,9.37
2019-05-18T06:19:28.227Z,9.00
2019-05-18T06:22:25.558Z,8.47
2019-05-18T06:25:11.754Z,8.97
2019-05-18T06:27:45.226Z,8.97
2019-05-18T06:30:34.560Z,7.97
2019-05-18T06:33:06.750Z,9.20
2019-05-18T06:35:40.212Z,9.67
2019-05-18T06:38:09.394Z,9.13
2019-05-18T06:40:42.081Z,8.03
2019-05-18T06:43:24.659Z,7.93
2019-05-18T06:45:57.819Z,8.50
2019-05-18T06:48:32.120Z,9.33
2019-05-18T06:51:13.081Z,7.80
2019-05-18T06:54:08.221Z,8.07
2019-05-18T06:57:04.981Z,8.83
2019-05-18T07:00:02.281Z,10.57
2019-05-18T07:02:35.445Z,8.37
2019-05-18T07:05:43.386Z,9.27
2019-05-18T07:08:37.510Z,8.87
2019-05-18T07:11:38.367Z,9.07
2019-05-18T07:14:35.417Z,8.13
2019-05-18T07:17:18.865Z,7.87
2019-05-18T07:20:28.900Z,8.13
2019-05-18T07:23:26.362Z,8.53
2019-05-18T07:26:24.158Z,9.57
2019-05-18T07:29:21.935Z,7.43
2019-05-18T07:32:32.040Z,8.40
2019-05-18T07:35:29.923Z,7.80
2019-05-18T07:38:15.147Z,8.20
2019-05-18T07:41:13.367Z,6.77
2019-05-18T07:44:09.909Z,7.53
2019-05-18T07:47:07.895Z,6.93
2019-05-18T07:50:18.579Z,7.73
2019-05-18T07:53:42.896Z,7.47
2019-05-18T07:56:40.282Z,6.87
2019-05-18T07:59:37.507Z,6.80
2019-05-18T08:02:34.442Z,10.63
2019-05-18T08:05:05.189Z,7.33
2019-05-18T08:08:02.454Z,6.97
2019-05-18T08:11:13.053Z,7.07
2019-05-18T08:13:55.976Z,7.42
2019-05-18T08:16:40.414Z,6.65
2019-05-18T08:19:38.040Z,6.10
2019-05-18T08:22:21.648Z,6.17
2019-05-18T08:25:31.678Z,5.83
2019-05-18T08:28:42.236Z,6.33
2019-05-18T08:31:30.116Z,6.58
2019-05-18T08:34:49.383Z,5.45
2019-05-18T08:37:33.786Z,6.40
2019-05-18T08:40:30.624Z,5.90
2019-05-18T08:43:41.172Z,8.43
2019-05-18T08:46:37.666Z,7.03
2019-05-18T08:49:35.007Z,5.87
2019-05-18T08:52:35.103Z,6.85
2019-05-18T08:55:43.443Z,6.35
2019-05-18T08:58:40.487Z,5.70
2019-05-18T09:01:14.864Z,6.75
2019-05-18T09:04:23.246Z,5.92
2019-05-18T09:07:19.561Z,4.53
2019-05-18T09:10:17.946Z,6.75
2019-05-18T09:13:00.827Z,5.60
2019-05-18T09:16:00.382Z,5.15
2019-05-18T09:19:10.677Z,5.78
2019-05-18T09:21:58.965Z,6.85
2019-05-18T09:25:05.471Z,8.03
2019-05-18T09:28:25.179Z,5.90
2019-05-18T09:31:08.350Z,5.97
2019-05-18T09:33:50.186Z,6.45
2019-05-18T09:36:18.584Z,8.25
2019-05-18T09:39:26.863Z,6.87
2019-05-18T09:42:50.795Z,7.22
2019-05-18T09:45:28.425Z,6.58
2019-05-18T09:48:46.642Z,8.15
2019-05-18T09:51:46.675Z,9.25
2019-05-18T09:54:33.620Z,8.08
2019-05-18T09:57:35.707Z,6.92
2019-05-18T10:00:59.777Z,7.83
2019-05-18T10:03:56.893Z,6.95
2019-05-18T10:06:47.434Z,6.65
2019-05-18T10:09:50.990Z,7.12
2019-05-18T10:12:47.732Z,6.50
2019-05-18T10:15:44.577Z,6.50
2019-05-18T10:18:28.522Z,8.25
2019-05-18T10:21:25.587Z,7.92
2019-05-18T10:24:00.878Z,9.13
2019-05-18T10:26:47.823Z,6.85
2019-05-18T10:29:41.169Z,6.53
2019-05-18T10:32:17.445Z,7.30
2019-05-18T10:34:58.924Z,10.23
2019-05-18T10:37:28.611Z,6.60
2019-05-18T10:40:17.465Z,6.97
2019-05-18T10:43:06.989Z,7.70
2019-05-18T10:48:52.380Z,6.37
2019-05-18T10:51:32.246Z,5.12
2019-05-18T10:54:23.406Z,8.53
2019-05-18T10:57:01.867Z,6.50
2019-05-18T10:59:54.202Z,6.03
2019-05-18T11:02:30.355Z,6.80
2019-05-18T11:05:11.362Z,6.00
2019-05-18T11:08:26.945Z,6.00
2019-05-18T11:11:10.084Z,7.13
2019-05-18T11:14:19.995Z,7.60
2019-05-18T11:17:01.370Z,5.87
2019-05-18T11:20:11.413Z,8.27
2019-05-18T11:22:56.703Z,7.67
2019-05-18T11:26:07.797Z,5.93
2019-05-18T11:29:05.259Z,6.67
2019-05-18T11:32:16.096Z,8.40
2019-05-18T11:34:46.340Z,7.30
2019-05-18T11:37:52.247Z,9.13
2019-05-18T11:40:55.452Z,4.90
2019-05-18T11:43:39.217Z,6.23
2019-05-18T11:46:23.180Z,5.93
2019-05-18T11:49:33.301Z,5.37
2019-05-18T11:52:31.844Z,6.00
2019-05-18T11:55:15.082Z,7.93
2019-05-18T11:57:58.952Z,4.33
2019-05-18T12:00:39.151Z,8.23
2019-05-18T12:03:13.424Z,5.20
2019-05-18T12:05:48.737Z,7.53
2019-05-18T12:08:42.352Z,6.00
2019-05-18T12:11:31.954Z,4.60
2019-05-18T12:14:25.106Z,7.57
2019-05-18T12:17:35.091Z,4.40
2019-05-18T12:20:35.042Z,3.77
2019-05-18T12:23:15.630Z,6.30
2019-05-18T12:25:50.976Z,5.50
2019-05-18T12:28:18.215Z,5.90
2019-05-18T12:31:17.194Z,4.93
2019-05-18T12:33:48.029Z,5.00
2019-05-18T12:36:48.970Z,5.43
2019-05-18T12:39:05.816Z,3.20
2019-05-18T12:41:33.533Z,6.47
2019-05-18T12:44:35.848Z,3.50
2019-05-18T12:47:32.282Z,3.50
2019-05-18T12:50:29.247Z,5.07
2019-05-18T12:52:53.922Z,4.33
2019-05-18T12:55:58.892Z,3.53
2019-05-18T12:58:29.379Z,4.50
2019-05-18T13:00:56.636Z,3.30
2019-05-18T13:03:40.336Z,4.73
2019-05-18T13:06:33.115Z,5.53
2019-05-18T13:08:49.384Z,2.33
2019-05-18T13:12:03.533Z,5.10
2019-05-18T13:15:00.809Z,3.27
2019-05-18T13:17:59.704Z,2.20
2019-05-18T13:20:56.691Z,2.70
2019-05-18T13:23:53.246Z,5.27
2019-05-18T13:26:23.453Z,2.40
2019-05-18T13:29:34.260Z,3.90
2019-05-18T13:32:31.106Z,3.03
2019-05-18T13:35:28.094Z,2.77
2019-05-18T13:38:01.106Z,2.43
2019-05-18T13:41:10.398Z,2.83
2019-05-18T13:44:07.426Z,3.37
2019-05-18T13:47:05.161Z,2.67
2019-05-18T13:49:42.537Z,3.43
2019-05-18T13:52:47.722Z,4.70
2019-05-18T13:55:49.814Z,3.07
2019-05-18T13:58:55.272Z,2.60
2019-05-18T14:01:54.878Z,2.43
2019-05-18T14:04:49.030Z,3.67
2019-05-18T14:07:19.782Z,2.47
2019-05-18T14:10:06.146Z,4.07
2019-05-18T14:13:27.332Z,3.07
2019-05-18T14:16:24.373Z,3.83
2019-05-18T14:19:07.790Z,3.07
2019-05-18T14:22:17.857Z,2.20
2019-05-18T14:25:19.191Z,4.53
2019-05-18T14:27:58.717Z,2.52
2019-05-18T14:30:56.491Z,3.87
2019-05-18T14:34:07.163Z,4.80
2019-05-18T14:36:52.612Z,2.73
2019-05-18T14:39:49.766Z,2.93
2019-05-18T14:42:47.622Z,4.80
2019-05-18T14:45:44.891Z,3.87
2019-05-18T14:48:18.509Z,9.97
2019-05-18T14:51:28.448Z,5.77
2019-05-18T14:54:25.764Z,4.50
2019-05-18T14:57:25.498Z,8.33
2019-05-18T15:00:20.828Z,8.03
2019-05-18T15:03:18.278Z,11.23
2019-05-18T15:06:15.246Z,8.03
2019-05-18T15:09:03.347Z,5.40
2019-05-18T15:11:43.663Z,5.93
2019-05-18T15:14:55.085Z,6.60
2019-05-18T15:17:39.015Z,5.50
2019-05-18T15:20:36.614Z,7.30
2019-05-18T15:23:33.561Z,8.03
2019-05-18T15:26:32.505Z,7.40
2019-05-18T15:29:29.812Z,5.60
2019-05-18T15:32:26.822Z,8.23
2019-05-18T15:35:10.982Z,5.77
2019-05-18T15:38:10.320Z,7.87
2019-05-18T15:41:22.243Z,5.60
2019-05-18T15:44:19.738Z,4.53
2019-05-18T15:46:50.023Z,6.03
2019-05-18T15:50:04.952Z,4.50
2019-05-18T15:53:02.240Z,3.63
2019-05-18T15:56:06.006Z,3.93
2019-05-18T15:59:10.180Z,6.10
2019-05-18T16:01:53.213Z,4.73
2019-05-18T16:04:36.238Z,2.77
2019-05-18T16:07:33.034Z,3.37
2019-05-18T16:10:24.749Z,5.07
2019-05-18T16:13:10.983Z,2.27
2019-05-18T16:15:50.446Z,2.20
2019-05-18T16:18:27.482Z,1.90
2019-05-18T16:21:22.864Z,2.33
2019-05-18T16:23:53.027Z,2.27
2019-05-18T16:26:21.801Z,2.60
2019-05-18T16:29:01.057Z,2.90
2019-05-18T16:32:12.815Z,2.07
2019-05-18T16:34:31.202Z,1.57
2019-05-18T16:37:46.742Z,1.63
2019-05-18T16:40:40.410Z,1.67
2019-05-18T16:43:13.513Z,3.53
2019-05-18T16:45:40.739Z,1.60
2019-05-18T16:48:15.926Z,1.90
2019-05-18T16:50:46.685Z,2.80
2019-05-18T16:53:13.897Z,1.73
2019-05-18T16:55:55.766Z,2.77
2019-05-18T16:58:26.116Z,1.83
2019-05-18T17:01:00.309Z,6.70
2019-05-18T17:03:36.461Z,2.53
2019-05-18T17:06:06.820Z,2.90
2019-05-18T17:08:46.975Z,2.00
2019-05-18T17:11:56.963Z,2.20
2019-05-18T17:14:25.070Z,2.73
2019-05-18T17:16:59.806Z,2.00
2019-05-18T17:19:40.965Z,2.70
2019-05-18T17:22:20.714Z,1.70
2019-05-18T17:24:47.424Z,3.00
2019-05-18T17:27:24.021Z,2.40
2019-05-18T17:30:00.126Z,2.37
2019-05-18T17:32:51.185Z,2.23
2019-05-18T17:35:38.649Z,1.83
2019-05-18T17:38:38.260Z,2.20
2019-05-18T17:41:22.267Z,4.90
2019-05-18T17:44:19.290Z,2.40
2019-05-18T17:47:02.988Z,5.70
2019-05-18T17:50:09.117Z,3.00
2019-05-18T17:53:17.232Z,4.00
2019-05-18T17:56:27.281Z,3.20
2019-05-18T17:59:23.307Z,3.87
2019-05-18T18:02:22.916Z,2.30
2019-05-18T18:05:20.817Z,2.80
2019-05-18T18:08:09.858Z,2.97
2019-05-18T18:11:00.770Z,4.27
2019-05-18T18:14:05.369Z,6.40
2019-05-18T18:16:55.385Z,8.67
2019-05-18T18:19:59.877Z,3.77
2019-05-18T18:23:05.709Z,3.17
2019-05-18T18:25:31.422Z,5.03
2019-05-18T18:28:41.240Z,4.40
2019-05-18T18:31:42.584Z,6.23
2019-05-18T18:34:39.918Z,4.77
2019-05-18T18:37:25.936Z,4.00
2019-05-18T18:40:22.780Z,3.90
2019-05-18T18:43:13.271Z,4.77
2019-05-18T18:46:22.256Z,5.90
2019-05-18T18:49:07.159Z,6.90
2019-05-18T18:52:18.337Z,6.33
2019-05-18T18:55:06.493Z,4.80
2019-05-18T18:57:51.054Z,5.80
2019-05-18T19:00:54.582Z,5.00
2019-05-18T19:03:46.888Z,5.50
2019-05-18T19:06:42.879Z,9.10
2019-05-18T19:09:39.427Z,10.57
2019-05-18T19:12:36.990Z,5.60
2019-05-18T19:15:34.141Z,5.67
2019-05-18T19:18:30.855Z,4.97
2019-05-18T19:21:01.326Z,4.27
2019-05-18T19:24:12.390Z,4.63
2019-05-18T19:26:55.943Z,8.10
2019-05-18T19:30:09.596Z,6.67
2019-05-18T19:32:37.451Z,5.00
2019-05-18T19:35:47.890Z,6.80
2019-05-18T19:38:46.783Z,7.27
2019-05-18T19:41:43.852Z,6.77
2019-05-18T19:44:55.117Z,8.93
2019-05-18T19:47:38.243Z,6.60
2019-05-18T19:50:48.789Z,7.17
2019-05-18T19:53:27.352Z,6.50
2019-05-18T19:56:12.852Z,6.70
2019-05-18T19:58:57.357Z,6.93
2019-05-18T20:01:41.200Z,6.70
2019-05-18T20:04:41.321Z,9.90
2019-05-18T20:07:19.003Z,7.17
2019-05-18T20:10:13.390Z,8.40
2019-05-18T20:13:19.830Z,9.53
2019-05-18T20:15:37.654Z,11.17
2019-05-18T20:18:37.422Z,13.17
2019-05-18T20:21:35.443Z,10.40
2019-05-18T20:24:32.540Z,11.90
2019-05-18T20:27:29.180Z,11.30
2019-05-18T20:30:25.860Z,10.23
2019-05-18T20:33:09.865Z,10.80
2019-05-18T20:35:49.718Z,11.43
2019-05-18T20:38:53.624Z,12.17
2019-05-18T20:41:42.961Z,14.57
2019-05-18T20:44:09.316Z,12.60
2019-05-18T20:47:23.689Z,14.43
2019-05-18T20:50:20.594Z,12.27
2019-05-18T20:53:04.393Z,14.57
2019-05-18T20:56:11.881Z,14.10
2019-05-18T20:59:13.992Z,13.10
2019-05-18T21:01:57.778Z,12.33
2019-05-18T21:04:55.139Z,12.67
2019-05-18T21:08:05.586Z,11.53
2019-05-18T21:10:40.760Z,13.37
2019-05-18T21:14:04.122Z,13.10
2019-05-18T21:17:01.355Z,12.20
2019-05-18T21:20:11.606Z,13.47
2019-05-18T21:23:08.745Z,11.43
2019-05-18T21:26:06.510Z,12.40
2019-05-18T21:28:56.379Z,11.40
2019-05-18T21:32:02.776Z,11.27
2019-05-18T21:35:01.153Z,11.60
2019-05-18T21:38:13.907Z,11.10
2019-05-18T21:41:01.011Z,10.63
2019-05-18T21:44:04.389Z,12.27
2019-05-18T21:47:01.362Z,13.93
2019-05-18T21:49:57.788Z,11.77
2019-05-18T21:52:54.599Z,14.00
2019-05-18T21:55:51.250Z,13.00
2019-05-18T21:58:47.850Z,12.17
2019-05-18T22:01:44.699Z,9.90
2019-05-18T22:04:39.121Z,7.83
2019-05-18T22:07:38.097Z,6.60
2019-05-18T22:10:35.684Z,6.60
2019-05-18T22:13:20.239Z,8.70
2019-05-18T22:16:17.085Z,5.83
2019-05-18T22:19:14.467Z,5.67
2019-05-18T22:22:38.331Z,7.37
2019-05-18T22:25:22.096Z,8.77
2019-05-18T22:28:18.697Z,7.40
2019-05-18T22:31:15.584Z,8.43
2019-05-18T22:34:27.852Z,10.50
2019-05-18T22:37:40.290Z,9.10
2019-05-18T22:40:37.413Z,7.80
2019-05-18T22:43:36.451Z,8.67
2019-05-18T22:46:33.450Z,7.83
2019-05-18T22:49:30.217Z,9.10
2019-05-18T22:52:27.162Z,8.70
2019-05-18T22:55:24.710Z,8.83
2019-05-18T22:57:55.991Z,10.47
2019-05-18T23:01:06.261Z,9.33
2019-05-18T23:06:48.243Z,11.03
2019-05-18T23:09:44.871Z,11.93
2019-05-18T23:12:42.331Z,17.80
2019-05-18T23:15:39.288Z,21.20
2019-05-18T23:18:37.864Z,24.40
2019-05-18T23:21:21.616Z,25.83
2019-05-18T23:24:32.490Z,29.10
2019-05-18T23:27:29.732Z,26.07
2019-05-18T23:30:27.282Z,30.73
2019-05-18T23:33:23.828Z,30.73
2019-05-18T23:36:11.075Z,33.93
2019-05-18T23:39:13.782Z,36.00
2019-05-18T23:42:24.376Z,35.37
2019-05-18T23:45:20.960Z,35.37
2019-05-18T23:48:18.447Z,42.67
2019-05-18T23:51:15.578Z,36.63
2019-05-18T23:54:43.457Z,37.00
2019-05-18T23:57:40.575Z,40.37
